createdAt,value
2023-04-04T00:01:37.881Z,3.38
2023-04-04T00:04:43.236Z,3.13
2023-04-04T00:07:49.157Z,2.90
2023-04-04T00:10:58.021Z,3.03
2023-04-04T00:14:00.671Z,3.80
2023-04-04T00:17:03.596Z,3.35
2023-04-04T00:20:07.030Z,3.00
2023-04-04T00:23:11.477Z,3.17
2023-04-04T00:26:14.159Z,3.50
2023-04-04T00:29:17.894Z,3.20
2023-04-04T00:32:21.130Z,3.83
2023-04-04T00:35:24.070Z,2.90
2023-04-04T00:38:26.761Z,3.55
2023-04-04T00:41:31.731Z,3.60
2023-04-04T00:44:36.875Z,3.60
2023-04-04T00:47:40.094Z,3.53
2023-04-04T00:50:42.848Z,3.95
2023-04-04T00:53:46.989Z,3.75
2023-04-04T00:56:55.600Z,3.42
2023-04-04T00:59:59.850Z,3.97
2023-04-04T01:03:03.068Z,3.83
2023-04-04T01:06:07.477Z,3.65
2023-04-04T01:09:10.610Z,3.53
2023-04-04T01:12:13.585Z,3.78
2023-04-04T01:15:16.553Z,3.80
2023-04-04T01:18:22.409Z,3.42
2023-04-04T01:21:25.117Z,3.67
2023-04-04T01:24:29.427Z,3.53
2023-04-04T01:27:35.008Z,3.75
2023-04-04T01:30:47.293Z,4.05
2023-04-04T01:34:00.954Z,4.45
2023-04-04T01:37:08.075Z,4.43
2023-04-04T01:40:19.216Z,4.30
2023-04-04T01:43:24.625Z,4.70
2023-04-04T01:46:32.268Z,4.50
2023-04-04T01:49:35.859Z,4.22
2023-04-04T01:52:40.048Z,4.63
2023-04-04T01:55:43.094Z,4.80
2023-04-04T01:58:46.090Z,4.22
2023-04-04T02:01:49.000Z,4.38
2023-04-04T02:04:51.702Z,4.32
2023-04-04T02:07:57.039Z,4.55
2023-04-04T02:11:10.136Z,4.65
2023-04-04T02:14:13.161Z,4.10
2023-04-04T02:17:16.569Z,4.53
2023-04-04T02:20:19.839Z,4.10
2023-04-04T02:23:22.551Z,4.38
2023-04-04T02:26:25.354Z,4.65
2023-04-04T02:29:28.100Z,3.80
2023-04-04T02:32:30.790Z,3.67
2023-04-04T02:35:33.784Z,3.85
2023-04-04T02:38:36.727Z,4.72
2023-04-04T02:41:41.948Z,3.50
2023-04-04T02:44:44.627Z,4.18
2023-04-04T02:47:51.756Z,3.35
2023-04-04T02:50:59.323Z,4.25
2023-04-04T02:54:03.382Z,3.72
2023-04-04T02:57:13.374Z,3.53
2023-04-04T03:00:16.315Z,4.18
2023-04-04T03:03:19.079Z,4.00
2023-04-04T03:06:23.560Z,4.03
2023-04-04T03:09:26.581Z,3.38
2023-04-04T03:12:29.262Z,7.93
2023-04-04T03:15:32.466Z,3.95
2023-04-04T03:18:35.237Z,3.53
2023-04-04T03:21:38.069Z,6.07
2023-04-04T03:24:41.742Z,4.28
2023-04-04T03:27:44.601Z,4.63
2023-04-04T03:30:54.025Z,4.50
2023-04-04T03:33:56.827Z,6.03
2023-04-04T03:37:00.229Z,4.78
2023-04-04T03:40:03.045Z,5.70
2023-04-04T03:43:09.042Z,5.07
2023-04-04T03:46:11.953Z,4.60
2023-04-04T03:49:14.557Z,4.72
2023-04-04T03:52:17.595Z,4.30
2023-04-04T03:55:20.308Z,4.45
2023-04-04T03:58:23.693Z,4.60
2023-04-04T04:01:27.355Z,3.90
2023-04-04T04:04:30.453Z,4.15
2023-04-04T04:07:35.969Z,3.85
2023-04-04T04:10:39.866Z,4.10
2023-04-04T04:13:42.772Z,3.78
2023-04-04T04:16:45.420Z,4.03
2023-04-04T04:19:52.933Z,4.70
2023-04-04T04:22:56.104Z,3.30
2023-04-04T04:25:59.032Z,3.08
2023-04-04T04:29:03.665Z,4.10
2023-04-04T04:32:08.755Z,2.88
2023-04-04T04:35:17.111Z,3.67
2023-04-04T04:38:21.130Z,3.35
2023-04-04T04:41:25.172Z,3.53
2023-04-04T04:44:28.509Z,2.88
2023-04-04T04:47:32.999Z,3.38
2023-04-04T04:50:39.781Z,3.67
2023-04-04T04:53:45.878Z,3.67
2023-04-04T04:56:49.635Z,3.28
2023-04-04T04:59:52.727Z,3.35
2023-04-04T05:02:57.172Z,4.10
2023-04-04T05:06:10.462Z,3.17
2023-04-04T05:09:14.798Z,3.20
2023-04-04T05:12:18.383Z,3.65
2023-04-04T05:15:26.224Z,4.57
2023-04-04T05:18:29.145Z,3.15
2023-04-04T05:21:32.621Z,3.30
2023-04-04T05:24:37.050Z,3.30
2023-04-04T05:27:41.080Z,2.88
2023-04-04T05:30:44.030Z,3.10
2023-04-04T05:33:51.526Z,3.78
2023-04-04T05:37:11.694Z,3.30
2023-04-04T05:40:15.234Z,2.83
2023-04-04T05:43:21.228Z,3.50
2023-04-04T05:46:36.345Z,3.55
2023-04-04T05:49:40.191Z,3.85
2023-04-04T05:52:43.204Z,4.15
2023-04-04T05:55:53.788Z,2.78
2023-04-04T05:59:00.312Z,4.18
2023-04-04T06:02:08.066Z,3.47
2023-04-04T06:05:14.856Z,3.17
2023-04-04T06:08:17.916Z,3.03
2023-04-04T06:11:22.967Z,3.50
2023-04-04T06:14:26.493Z,3.38
2023-04-04T06:17:29.673Z,3.33
2023-04-04T06:20:32.975Z,3.75
2023-04-04T06:23:37.998Z,4.00
2023-04-04T06:26:43.148Z,2.90
2023-04-04T06:29:45.996Z,3.17
2023-04-04T06:32:53.402Z,3.10
2023-04-04T06:36:00.651Z,2.85
2023-04-04T06:39:03.468Z,2.55
2023-04-04T06:42:06.473Z,2.60
2023-04-04T06:45:11.349Z,3.72
2023-04-04T06:48:14.133Z,3.63
2023-04-04T06:51:16.886Z,2.97
2023-04-04T06:54:21.426Z,3.50
2023-04-04T06:57:24.148Z,4.38
2023-04-04T07:00:26.876Z,3.40
2023-04-04T07:03:29.983Z,3.45
2023-04-04T07:06:32.875Z,2.78
2023-04-04T07:09:35.645Z,1.88
2023-04-04T07:12:38.384Z,3.20
2023-04-04T07:15:41.303Z,2.35
2023-04-04T07:18:44.705Z,2.67
2023-04-04T07:21:47.530Z,3.00
2023-04-04T07:24:50.736Z,2.33
2023-04-04T07:27:59.698Z,2.53
2023-04-04T07:31:08.658Z,2.33
2023-04-04T07:34:11.885Z,2.03
2023-04-04T07:37:14.837Z,2.00
2023-04-04T07:40:19.195Z,2.65
2023-04-04T07:43:21.927Z,1.90
2023-04-04T07:46:24.719Z,2.05
2023-04-04T07:49:27.463Z,2.78
2023-04-04T07:52:30.561Z,1.77
2023-04-04T07:55:33.236Z,1.75
2023-04-04T07:58:36.948Z,2.05
2023-04-04T08:01:39.637Z,1.63
2023-04-04T08:04:42.490Z,1.70
2023-04-04T08:07:45.246Z,1.52
2023-04-04T08:10:49.554Z,2.50
2023-04-04T08:13:52.197Z,2.35
2023-04-04T08:16:55.022Z,1.75
2023-04-04T08:19:58.603Z,1.73
2023-04-04T08:23:01.761Z,3.53
2023-04-04T08:26:04.747Z,2.30
2023-04-04T08:29:07.937Z,2.08
2023-04-04T08:32:17.308Z,2.03
2023-04-04T08:35:20.196Z,2.28
2023-04-04T08:38:22.950Z,2.10
2023-04-04T08:41:27.084Z,2.08
2023-04-04T08:47:38.964Z,1.48
2023-04-04T08:50:43.036Z,2.83
2023-04-04T08:53:46.216Z,2.50
2023-04-04T08:56:50.246Z,2.90
2023-04-04T08:59:54.816Z,2.50
2023-04-04T09:03:06.348Z,1.95
2023-04-04T09:06:09.485Z,1.83
2023-04-04T09:09:12.644Z,2.13
2023-04-04T09:12:19.079Z,2.28
2023-04-04T09:15:22.180Z,2.17
2023-04-04T09:18:25.005Z,2.38
2023-04-04T09:21:29.733Z,2.47
2023-04-04T09:24:42.902Z,2.00
2023-04-04T09:27:45.997Z,2.70
2023-04-04T09:30:49.637Z,2.08
2023-04-04T09:33:52.520Z,2.17
2023-04-04T09:36:55.436Z,2.72
2023-04-04T09:39:58.470Z,2.20
2023-04-04T09:43:02.629Z,2.13
2023-04-04T09:46:06.532Z,2.75
2023-04-04T09:49:20.686Z,2.15
2023-04-04T09:52:23.577Z,2.28
2023-04-04T09:55:36.819Z,1.92
2023-04-04T09:58:46.685Z,1.73
2023-04-04T10:01:56.026Z,4.28
2023-04-04T10:05:06.181Z,2.55
2023-04-04T10:08:22.440Z,2.20
2023-04-04T10:11:34.123Z,6.28
2023-04-04T10:14:37.269Z,3.65
2023-04-04T10:17:42.265Z,2.90
2023-04-04T10:20:46.445Z,3.58
2023-04-04T10:23:49.716Z,2.33
2023-04-04T10:26:53.924Z,3.00
2023-04-04T10:29:57.741Z,3.50
2023-04-04T10:33:06.634Z,3.00
2023-04-04T10:36:10.094Z,2.05
2023-04-04T10:39:23.308Z,2.60
2023-04-04T10:42:27.311Z,2.30
2023-04-04T10:45:32.353Z,2.72
2023-04-04T10:48:35.424Z,2.97
2023-04-04T10:51:48.893Z,3.75
2023-04-04T10:54:59.113Z,3.28
2023-04-04T10:58:02.412Z,3.63
2023-04-04T11:01:08.632Z,2.95
2023-04-04T11:04:21.100Z,3.80
2023-04-04T11:07:29.702Z,3.50
2023-04-04T11:10:37.548Z,2.38
2023-04-04T11:13:41.989Z,1.95
2023-04-04T11:16:47.000Z,2.00
2023-04-04T11:20:00.390Z,3.10
2023-04-04T11:23:04.253Z,2.85
2023-04-04T11:26:08.973Z,2.50
2023-04-04T11:29:21.264Z,2.22
2023-04-04T11:32:34.930Z,2.50
2023-04-04T11:35:41.758Z,2.33
2023-04-04T11:38:50.186Z,2.13
2023-04-04T11:41:52.993Z,2.20
2023-04-04T11:44:55.587Z,2.92
2023-04-04T11:47:59.960Z,2.38
2023-04-04T11:51:04.388Z,2.63
2023-04-04T11:54:16.989Z,2.53
2023-04-04T11:57:21.524Z,2.50
2023-04-04T12:00:35.310Z,2.40
2023-04-04T12:03:39.200Z,2.35
2023-04-04T12:06:43.272Z,3.47
2023-04-04T12:09:46.242Z,2.67
2023-04-04T12:12:50.324Z,3.83
2023-04-04T12:15:54.629Z,2.30
2023-04-04T12:19:02.774Z,2.85
2023-04-04T12:25:10.391Z,2.72
2023-04-04T12:28:13.376Z,2.20
2023-04-04T12:31:19.002Z,3.15
2023-04-04T12:37:33.604Z,2.13
2023-04-04T12:40:39.170Z,2.97
2023-04-04T12:43:42.811Z,2.67
2023-04-04T12:46:47.678Z,2.30
2023-04-04T12:49:57.792Z,2.85
2023-04-04T12:53:30.184Z,3.20
2023-04-04T12:56:56.993Z,2.28
2023-04-04T13:00:11.633Z,2.30
2023-04-04T13:03:42.990Z,2.13
2023-04-04T13:06:49.431Z,2.38
2023-04-04T13:10:05.001Z,2.13
2023-04-04T13:13:44.107Z,2.10
2023-04-04T13:17:03.871Z,2.50
2023-04-04T13:20:57.026Z,2.05
2023-04-04T13:24:11.329Z,2.38
2023-04-04T13:27:21.832Z,2.47
2023-04-04T13:30:24.629Z,2.20
2023-04-04T13:33:27.690Z,2.13
2023-04-04T13:36:30.636Z,2.35
2023-04-04T13:39:33.583Z,2.17
2023-04-04T13:42:36.643Z,1.85
2023-04-04T13:45:39.534Z,2.13
2023-04-04T13:48:43.195Z,2.20
2023-04-04T13:51:46.087Z,2.05
2023-04-04T13:54:52.224Z,2.78
2023-04-04T13:57:55.252Z,2.40
2023-04-04T14:00:58.200Z,2.25
2023-04-04T14:04:07.331Z,2.30
2023-04-04T14:07:16.212Z,1.98
2023-04-04T14:10:19.133Z,2.17
2023-04-04T14:13:22.816Z,2.13
2023-04-04T14:16:25.791Z,2.20
2023-04-04T14:19:28.701Z,2.35
2023-04-04T14:22:31.901Z,2.38
2023-04-04T14:25:35.206Z,1.90
2023-04-04T14:28:39.140Z,2.22
2023-04-04T14:31:42.539Z,2.45
2023-04-04T14:34:45.632Z,2.35
2023-04-04T14:37:50.417Z,3.13
2023-04-04T14:40:53.250Z,2.78
2023-04-04T14:43:56.345Z,4.50
2023-04-04T14:46:59.369Z,3.13
2023-04-04T14:50:02.401Z,3.00
2023-04-04T14:53:05.189Z,2.55
2023-04-04T14:56:10.843Z,2.22
2023-04-04T14:59:14.416Z,2.58
2023-04-04T15:02:17.299Z,2.58
2023-04-04T15:05:20.321Z,2.58
2023-04-04T15:08:23.250Z,3.20
2023-04-04T15:11:28.061Z,2.85
2023-04-04T15:14:31.427Z,3.95
2023-04-04T15:17:34.395Z,3.92
2023-04-04T15:20:40.847Z,4.07
2023-04-04T15:23:43.866Z,3.22
2023-04-04T15:26:47.224Z,6.43
2023-04-04T15:29:50.437Z,7.72
2023-04-04T15:32:54.493Z,3.63
2023-04-04T15:35:57.521Z,3.25
2023-04-04T15:39:01.632Z,3.20
2023-04-04T15:42:06.142Z,4.22
2023-04-04T15:45:10.340Z,4.40
2023-04-04T15:48:13.656Z,3.83
2023-04-04T15:51:17.416Z,3.72
2023-04-04T15:54:20.294Z,3.78
2023-04-04T15:57:27.488Z,2.85
2023-04-04T16:03:33.778Z,3.13
2023-04-04T16:06:37.757Z,2.88
2023-04-04T16:09:44.686Z,4.22
2023-04-04T16:12:47.544Z,4.10
2023-04-04T16:15:50.578Z,2.65
2023-04-04T16:18:53.637Z,3.20
2023-04-04T16:21:57.028Z,3.90
2023-04-04T16:24:59.919Z,8.32
2023-04-04T16:28:02.720Z,6.25
2023-04-04T16:31:06.174Z,5.18
2023-04-04T16:34:10.313Z,3.92
2023-04-04T16:37:16.925Z,4.63
2023-04-04T16:40:20.428Z,5.15
2023-04-04T16:43:23.456Z,3.30
2023-04-04T16:46:29.298Z,3.67
2023-04-04T16:49:32.330Z,3.70
2023-04-04T16:52:35.456Z,4.18
2023-04-04T16:55:38.387Z,3.90
2023-04-04T16:58:41.709Z,2.78
2023-04-04T17:01:44.485Z,3.33
2023-04-04T17:04:47.466Z,3.72
2023-04-04T17:07:50.478Z,4.18
2023-04-04T17:10:53.567Z,4.22
2023-04-04T17:13:56.764Z,4.63
2023-04-04T17:17:02.966Z,4.55
2023-04-04T17:20:06.855Z,3.90
2023-04-04T17:23:10.267Z,4.03
2023-04-04T17:26:13.334Z,4.53
2023-04-04T17:29:16.473Z,5.07
2023-04-04T17:32:20.023Z,3.90
2023-04-04T17:35:22.973Z,9.07
2023-04-04T17:38:25.860Z,4.07
2023-04-04T17:41:31.280Z,5.10
2023-04-04T17:44:34.028Z,6.38
2023-04-04T17:47:36.797Z,3.45
2023-04-04T17:50:40.265Z,8.70
2023-04-04T17:53:43.661Z,6.05
2023-04-04T17:56:47.447Z,3.75
2023-04-04T17:59:50.503Z,3.47
2023-04-04T18:02:53.710Z,5.60
2023-04-04T18:05:56.886Z,4.82
2023-04-04T18:09:01.807Z,3.80
2023-04-04T18:12:04.733Z,4.22
2023-04-04T18:15:08.168Z,4.10
2023-04-04T18:18:11.198Z,5.72
2023-04-04T18:21:14.380Z,5.28
2023-04-04T18:24:17.334Z,3.95
2023-04-04T18:27:20.363Z,3.70
2023-04-04T18:30:23.747Z,5.32
2023-04-04T18:33:27.775Z,3.92
2023-04-04T18:36:31.377Z,3.78
2023-04-04T18:39:34.420Z,5.13
2023-04-04T18:42:37.464Z,4.00
2023-04-04T18:45:42.176Z,4.82
2023-04-04T18:48:45.078Z,6.63
2023-04-04T18:51:48.083Z,5.25
2023-04-04T18:54:53.387Z,8.10
2023-04-04T18:57:56.679Z,5.63
2023-04-04T19:00:59.772Z,5.07
2023-04-04T19:04:06.242Z,5.15
2023-04-04T19:07:11.872Z,8.90
2023-04-04T19:10:15.993Z,4.18
2023-04-04T19:13:19.142Z,6.28
2023-04-04T19:16:22.108Z,4.13
2023-04-04T19:19:25.307Z,6.07
2023-04-04T19:22:28.228Z,7.43
2023-04-04T19:25:30.959Z,6.18
2023-04-04T19:28:33.916Z,6.00
2023-04-04T19:31:36.822Z,6.05
2023-04-04T19:34:39.586Z,7.05
2023-04-04T19:37:42.367Z,5.95
2023-04-04T19:40:49.915Z,4.40
2023-04-04T19:43:52.767Z,4.90
2023-04-04T19:46:55.801Z,4.60
2023-04-04T19:49:58.626Z,9.75
2023-04-04T19:53:01.559Z,5.93
2023-04-04T19:56:08.665Z,5.47
2023-04-04T19:59:37.119Z,4.38
2023-04-04T20:02:48.328Z,4.78
2023-04-04T20:05:56.488Z,5.90
2023-04-04T20:09:01.539Z,7.75
2023-04-04T20:12:05.740Z,6.10
2023-04-04T20:15:14.981Z,5.18
2023-04-04T20:18:24.939Z,7.75
2023-04-04T20:21:29.091Z,4.25
2023-04-04T20:24:32.178Z,4.85
2023-04-04T20:27:34.831Z,4.57
2023-04-04T20:30:38.209Z,7.00
2023-04-04T20:33:41.605Z,5.28
2023-04-04T20:36:44.635Z,5.55
2023-04-04T20:39:55.266Z,6.30
2023-04-04T20:42:58.472Z,5.15
2023-04-04T20:46:01.651Z,4.75
2023-04-04T20:49:04.857Z,5.25
2023-04-04T20:52:07.958Z,5.10
2023-04-04T20:55:14.154Z,4.50
2023-04-04T20:58:36.202Z,5.93
2023-04-04T21:01:39.162Z,5.30
2023-04-04T21:04:46.026Z,6.47
2023-04-04T21:07:48.912Z,7.18
2023-04-04T21:10:54.082Z,5.28
2023-04-04T21:13:57.385Z,5.00
2023-04-04T21:17:00.247Z,7.95
2023-04-04T21:20:09.547Z,7.60
2023-04-04T21:23:32.085Z,5.78
2023-04-04T21:26:37.372Z,6.07
2023-04-04T21:29:43.232Z,5.60
2023-04-04T21:32:46.205Z,6.97
2023-04-04T21:35:50.988Z,6.57
2023-04-04T21:39:00.985Z,5.55
2023-04-04T21:42:07.948Z,5.28
2023-04-04T21:45:11.755Z,5.32
2023-04-04T21:48:14.726Z,5.50
2023-04-04T21:51:17.684Z,5.82
2023-04-04T21:54:20.640Z,5.68
2023-04-04T21:57:29.206Z,6.03
2023-04-04T22:00:32.425Z,6.13
2023-04-04T22:03:37.506Z,5.57
2023-04-04T22:06:40.443Z,7.10
2023-04-04T22:09:46.957Z,6.60
2023-04-04T22:12:50.367Z,6.35
2023-04-04T22:15:59.164Z,5.13
2023-04-04T22:19:02.052Z,6.03
2023-04-04T22:22:05.685Z,6.53
2023-04-04T22:25:10.716Z,6.78
2023-04-04T22:28:13.414Z,6.35
2023-04-04T22:31:16.676Z,5.38
2023-04-04T22:34:19.340Z,5.60
2023-04-04T22:37:22.124Z,5.65
2023-04-04T22:40:24.968Z,4.82
2023-04-04T22:43:27.750Z,6.38
2023-04-04T22:46:31.814Z,6.18
2023-04-04T22:49:38.315Z,6.18
2023-04-04T22:52:43.580Z,5.78
2023-04-04T22:55:46.550Z,5.82
2023-04-04T22:58:49.257Z,6.00
2023-04-04T23:01:52.439Z,5.25
2023-04-04T23:04:55.233Z,5.07
2023-04-04T23:08:01.789Z,5.75
2023-04-04T23:11:06.866Z,5.60
2023-04-04T23:14:09.938Z,5.28
2023-04-04T23:17:14.918Z,6.07
2023-04-04T23:20:18.499Z,6.57
2023-04-04T23:23:23.946Z,5.90
2023-04-04T23:26:27.542Z,5.68
2023-04-04T23:29:30.526Z,6.13
2023-04-04T23:32:33.369Z,6.55
2023-04-04T23:35:36.189Z,6.13
2023-04-04T23:38:38.839Z,5.68
2023-04-04T23:41:41.684Z,5.32
2023-04-04T23:44:44.381Z,6.28
2023-04-04T23:47:47.094Z,5.70
2023-04-04T23:50:50.393Z,5.28
2023-04-04T23:53:53.221Z,6.00
2023-04-04T23:56:58.980Z,6.38
